TimeEDT,TemperatureF,Dew PointF,Humidity,Sea Level PressureIn,VisibilityMPH,Wind Direction,Wind SpeedMPH,Gust SpeedMPH,PrecipitationIn,Events,Conditions,WindDirDegrees,DateUTC
12:15 AM,30.2,17.6,60,29.98,10.0,Calm,Calm,-,N/A,,Clear,0,2013-03-23 04:15:00
12:35 AM,28.4,17.6,64,29.98,10.0,Calm,Calm,-,N/A,,Clear,0,2013-03-23 04:35:00
12:55 AM,28.4,17.6,64,29.99,10.0,Calm,Calm,-,N/A,,Clear,0,2013-03-23 04:55:00
1:15 AM,28.4,19.4,69,29.98,10.0,Calm,Calm,-,N/A,,Clear,0,2013-03-23 05:15:00
1:35 AM,28.4,17.6,64,29.98,10.0,Calm,Calm,-,N/A,,Clear,0,2013-03-23 05:35:00
1:55 AM,26.6,17.6,69,29.98,10.0,Calm,Calm,-,N/A,,Clear,0,2013-03-23 05:55:00
2:15 AM,26.6,17.6,69,29.98,10.0,Calm,Calm,-,N/A,,Clear,0,2013-03-23 06:15:00
2:35 AM,26.6,19.4,74,29.99,10.0,Calm,Calm,-,N/A,,Clear,0,2013-03-23 06:35:00
2:55 AM,26.6,19.4,74,29.99,10.0,Calm,Calm,-,N/A,,Clear,0,2013-03-23 06:55:00
3:15 AM,24.8,17.6,74,29.99,10.0,Calm,Calm,-,N/A,,Clear,0,2013-03-23 07:15:00
3:35 AM,26.6,17.6,69,29.99,10.0,Calm,Calm,-,N/A,,Clear,0,2013-03-23 07:35:00
3:55 AM,26.6,17.6,69,29.98,10.0,NE,3.5,-,N/A,,Clear,50,2013-03-23 07:55:00
4:15 AM,26.6,17.6,69,29.99,10.0,Calm,Calm,-,N/A,,Clear,0,2013-03-23 08:15:00
4:35 AM,26.6,17.6,69,29.98,10.0,Calm,Calm,-,N/A,,Clear,0,2013-03-23 08:35:00
4:55 AM,30.2,19.4,64,29.98,10.0,Calm,Calm,-,N/A,,Clear,0,2013-03-23 08:55:00
5:15 AM,26.6,17.6,69,29.98,10.0,Calm,Calm,-,N/A,,Clear,0,2013-03-23 09:15:00
5:35 AM,24.8,17.6,74,29.99,10.0,Calm,Calm,-,N/A,,Clear,0,2013-03-23 09:35:00
5:55 AM,23.0,17.6,80,29.99,10.0,Calm,Calm,-,N/A,,Clear,0,2013-03-23 09:55:00
6:15 AM,24.8,17.6,74,30.00,10.0,Calm,Calm,-,N/A,,Clear,0,2013-03-23 10:15:00
6:35 AM,24.8,17.6,74,30.00,10.0,Calm,Calm,-,N/A,,Clear,0,2013-03-23 10:35:00
6:55 AM,23.0,17.6,80,30.00,10.0,Calm,Calm,-,N/A,,Clear,0,2013-03-23 10:55:00
7:15 AM,21.2,17.6,86,30.01,10.0,Calm,Calm,-,N/A,,Clear,0,2013-03-23 11:15:00
7:35 AM,23.0,19.4,86,30.01,10.0,Calm,Calm,-,N/A,,Clear,0,2013-03-23 11:35:00
7:55 AM,24.8,21.2,86,30.01,10.0,Calm,Calm,-,N/A,,Clear,0,2013-03-23 11:55:00
8:15 AM,30.2,26.6,86,30.01,10.0,Calm,Calm,-,N/A,,Clear,0,2013-03-23 12:15:00
8:35 AM,32.0,26.6,80,30.01,10.0,Calm,Calm,-,N/A,,Clear,0,2013-03-23 12:35:00
9:15 AM,39.2,23.0,52,30.02,10.0,South,4.6,-,N/A,,Clear,170,2013-03-23 13:15:00
9:35 AM,39.2,21.2,49,30.04,10.0,South,6.9,-,N/A,,Clear,190,2013-03-23 13:35:00
9:55 AM,39.2,21.2,49,30.05,10.0,South,8.1,-,N/A,,Clear,170,2013-03-23 13:55:00
10:15 AM,42.8,21.2,42,30.03,10.0,SW,3.5,-,N/A,,Clear,220,2013-03-23 14:15:00
10:35 AM,44.6,21.2,39,30.02,10.0,SW,6.9,-,N/A,,Scattered Clouds,220,2013-03-23 14:35:00
10:55 AM,44.6,21.2,39,30.02,10.0,WSW,4.6,-,N/A,,Scattered Clouds,240,2013-03-23 14:55:00
11:15 AM,46.4,19.4,34,30.01,10.0,SW,3.5,-,N/A,,Mostly Cloudy,230,2013-03-23 15:15:00
11:35 AM,46.4,19.4,34,30.00,10.0,West,3.5,-,N/A,,Scattered Clouds,280,2013-03-23 15:35:00
11:55 AM,48.2,19.4,32,30.00,10.0,WSW,4.6,-,N/A,,Mostly Cloudy,250,2013-03-23 15:55:00
12:15 PM,46.4,17.6,32,29.99,10.0,West,8.1,-,N/A,,Mostly Cloudy,270,2013-03-23 16:15:00
12:35 PM,48.2,19.4,32,29.99,10.0,SE,3.5,-,N/A,,Overcast,140,2013-03-23 16:35:00
12:55 PM,51.8,19.4,28,29.98,10.0,ESE,3.5,-,N/A,,Mostly Cloudy,120,2013-03-23 16:55:00
1:15 PM,51.8,19.4,28,29.97,10.0,NNW,5.8,-,N/A,,Scattered Clouds,340,2013-03-23 17:15:00
1:35 PM,53.6,19.4,26,29.96,10.0,West,10.4,-,N/A,,Scattered Clouds,260,2013-03-23 17:35:00
1:55 PM,53.6,21.2,28,29.96,10.0,West,9.2,-,N/A,,Scattered Clouds,270,2013-03-23 17:55:00
2:15 PM,53.6,19.4,26,29.95,10.0,WNW,9.2,-,N/A,,Scattered Clouds,300,2013-03-23 18:15:00
2:35 PM,53.6,19.4,26,29.94,10.0,West,9.2,-,N/A,,Scattered Clouds,280,2013-03-23 18:35:00
2:55 PM,51.8,17.6,26,29.93,10.0,West,4.6,-,N/A,,Mostly Cloudy,260,2013-03-23 18:55:00
3:15 PM,53.6,19.4,26,29.93,10.0,WSW,11.5,16.1,N/A,,Mostly Cloudy,250,2013-03-23 19:15:00
3:35 PM,53.6,17.6,24,29.92,10.0,West,9.2,-,N/A,,Overcast,270,2013-03-23 19:35:00
3:55 PM,53.6,17.6,24,29.92,10.0,West,8.1,-,N/A,,Scattered Clouds,270,2013-03-23 19:55:00
4:15 PM,55.4,17.6,23,29.92,10.0,WNW,4.6,-,N/A,,Clear,300,2013-03-23 20:15:00
4:35 PM,55.4,17.6,23,29.91,10.0,WNW,4.6,-,N/A,,Clear,300,2013-03-23 20:35:00
4:55 PM,55.4,17.6,23,29.91,10.0,WNW,5.8,-,N/A,,Clear,300,2013-03-23 20:55:00
5:15 PM,55.4,17.6,23,29.90,10.0,Calm,Calm,-,N/A,,Clear,0,2013-03-23 21:15:00
5:35 PM,55.4,17.6,23,29.90,10.0,West,3.5,-,N/A,,Clear,280,2013-03-23 21:35:00
5:55 PM,55.4,17.6,23,29.89,10.0,Calm,Calm,-,N/A,,Clear,0,2013-03-23 21:55:00
6:15 PM,55.4,17.6,23,29.89,10.0,Calm,Calm,-,N/A,,Clear,0,2013-03-23 22:15:00
6:35 PM,53.6,19.4,26,29.89,10.0,Calm,Calm,-,N/A,,Clear,0,2013-03-23 22:35:00
6:55 PM,53.6,21.2,28,29.90,10.0,SE,3.5,-,N/A,,Clear,130,2013-03-23 22:55:00
7:15 PM,46.4,28.4,50,29.90,10.0,Calm,Calm,-,N/A,,Clear,0,2013-03-23 23:15:00
7:35 PM,42.8,26.6,53,29.90,10.0,East,3.5,-,N/A,,Clear,90,2013-03-23 23:35:00
7:55 PM,41.0,24.8,53,29.91,10.0,East,3.5,-,N/A,,Clear,90,2013-03-23 23:55:00
8:15 PM,39.2,23.0,52,29.91,10.0,East,3.5,-,N/A,,Clear,90,2013-03-24 00:15:00
8:35 PM,41.0,21.2,45,29.92,10.0,East,3.5,-,N/A,,Clear,90,2013-03-24 00:35:00
8:55 PM,37.4,21.2,52,29.93,10.0,Calm,Calm,-,N/A,,Clear,0,2013-03-24 00:55:00
9:15 PM,37.4,21.2,52,29.93,10.0,Calm,Calm,-,N/A,,Clear,0,2013-03-24 01:15:00
9:35 PM,37.4,19.4,48,29.94,10.0,ENE,3.5,-,N/A,,Clear,70,2013-03-24 01:35:00
9:55 PM,37.4,19.4,48,29.94,10.0,Calm,Calm,-,N/A,,Clear,0,2013-03-24 01:55:00
10:15 PM,39.2,21.2,49,29.94,10.0,NNE,8.1,-,N/A,,Clear,30,2013-03-24 02:15:00
10:35 PM,44.6,19.4,37,29.95,10.0,NNE,4.6,-,N/A,,Clear,30,2013-03-24 02:35:00
10:55 PM,42.8,19.4,39,29.96,10.0,NE,5.8,-,N/A,,Clear,50,2013-03-24 02:55:00
11:15 PM,42.8,19.4,39,29.96,10.0,NE,4.6,-,N/A,,Clear,50,2013-03-24 03:15:00
11:35 PM,42.8,19.4,39,29.96,10.0,NE,5.8,-,N/A,,Clear,40,2013-03-24 03:35:00
11:55 PM,44.6,19.4,37,29.96,10.0,NE,6.9,-,N/A,,Clear,50,2013-03-24 03:55:00